Fletcher, Illinois
Current Conditions -  °F | °C
As of 9:56 AM on Sunday 25 Jan 2015 (Local Time) from KBMI Reporting Station
Light Rain Light Rain  
Wind Chill: 24°   Ceiling: 200
Heat Index: 34°   Visibility: 1.2mi
Dew Point: 34°   Wind: 15mph
Humidity: 100%   Direction: 60°ENE
Pressure: 29.66"   Gusts: NA
Location:  40.4766°N, 88.992°W
Report Text: KBMI 251556Z 06013KT 1 1/4SM -RA BR OVC002 01/01 A2966 RMK AO2 T00110011 P0003 SLP055
Loading
Personal Weather Stations






























Interactive Weather Map New forecast layout! Learn more

10-Day Weather Forecast

Advertisements
Track Severe Weather on mobile